sensor_id;sensor_type;location;lat;lon;timestamp;temperature;humidity
39023;DHT22;25908;51.984;5.928;2022-11-02T00:00:12;15.00;94.80
39023;DHT22;25908;51.984;5.928;2022-11-02T00:02:38;15.00;95.00
39023;DHT22;25908;51.984;5.928;2022-11-02T00:05:03;15.00;94.90
39023;DHT22;25908;51.984;5.928;2022-11-02T00:07:29;15.10;94.90
39023;DHT22;25908;51.984;5.928;2022-11-02T00:09:54;15.10;94.50
39023;DHT22;25908;51.984;5.928;2022-11-02T00:12:20;15.10;94.60
39023;DHT22;25908;51.984;5.928;2022-11-02T00:14:45;15.10;94.50
39023;DHT22;25908;51.984;5.928;2022-11-02T00:17:11;15.00;94.70
39023;DHT22;25908;51.984;5.928;2022-11-02T00:19:36;15.10;94.60
39023;DHT22;25908;51.984;5.928;2022-11-02T00:22:02;15.00;94.80
39023;DHT22;25908;51.984;5.928;2022-11-02T00:24:29;15.00;95.10
39023;DHT22;25908;51.984;5.928;2022-11-02T00:26:56;15.00;95.20
39023;DHT22;25908;51.984;5.928;2022-11-02T00:29:22;15.00;95.30
39023;DHT22;25908;51.984;5.928;2022-11-02T00:31:49;14.90;95.50
39023;DHT22;25908;51.984;5.928;2022-11-02T00:34:14;15.00;96.60
39023;DHT22;25908;51.984;5.928;2022-11-02T00:36:40;14.90;97.20
39023;DHT22;25908;51.984;5.928;2022-11-02T00:39:06;14.80;97.60
39023;DHT22;25908;51.984;5.928;2022-11-02T00:41:31;14.70;97.50
39023;DHT22;25908;51.984;5.928;2022-11-02T00:43:57;14.70;97.90
39023;DHT22;25908;51.984;5.928;2022-11-02T00:46:22;14.60;98.00
39023;DHT22;25908;51.984;5.928;2022-11-02T00:48:48;14.60;98.30
39023;DHT22;25908;51.984;5.928;2022-11-02T00:51:14;14.60;98.60
39023;DHT22;25908;51.984;5.928;2022-11-02T00:53:39;14.60;98.60
39023;DHT22;25908;51.984;5.928;2022-11-02T00:56:05;14.60;98.30
39023;DHT22;25908;51.984;5.928;2022-11-02T00:58:31;14.50;98.40
39023;DHT22;25908;51.984;5.928;2022-11-02T01:00:56;14.50;98.40
39023;DHT22;25908;51.984;5.928;2022-11-02T01:03:22;14.50;98.50
39023;DHT22;25908;51.984;5.928;2022-11-02T01:05:48;14.40;98.40
39023;DHT22;25908;51.984;5.928;2022-11-02T01:08:13;14.40;98.60
39023;DHT22;25908;51.984;5.928;2022-11-02T01:10:39;14.40;98.70
39023;DHT22;25908;51.984;5.928;2022-11-02T01:13:04;14.30;98.80
39023;DHT22;25908;51.984;5.928;2022-11-02T01:15:30;14.40;98.60
39023;DHT22;25908;51.984;5.928;2022-11-02T01:17:55;14.30;98.20
39023;DHT22;25908;51.984;5.928;2022-11-02T01:20:21;14.30;98.40
39023;DHT22;25908;51.984;5.928;2022-11-02T01:22:47;14.30;98.40
39023;DHT22;25908;51.984;5.928;2022-11-02T01:25:12;14.30;98.60
39023;DHT22;25908;51.984;5.928;2022-11-02T01:27:38;14.40;98.60
39023;DHT22;25908;51.984;5.928;2022-11-02T01:30:04;14.40;98.60
39023;DHT22;25908;51.984;5.928;2022-11-02T01:32:30;14.40;98.80
39023;DHT22;25908;51.984;5.928;2022-11-02T01:34:55;14.40;99.00
39023;DHT22;25908;51.984;5.928;2022-11-02T01:37:21;14.40;98.90
39023;DHT22;25908;51.984;5.928;2022-11-02T01:39:47;14.40;99.10
39023;DHT22;25908;51.984;5.928;2022-11-02T01:42:17;14.30;99.20
39023;DHT22;25908;51.984;5.928;2022-11-02T01:44:43;14.30;99.40
39023;DHT22;25908;51.984;5.928;2022-11-02T01:47:21;14.30;99.40
39023;DHT22;25908;51.984;5.928;2022-11-02T01:49:54;14.30;99.30
39023;DHT22;25908;51.984;5.928;2022-11-02T01:52:33;14.40;99.50
39023;DHT22;25908;51.984;5.928;2022-11-02T01:57:32;14.30;96.90
39023;DHT22;25908;51.984;5.928;2022-11-02T02:00:06;14.20;96.30
39023;DHT22;25908;51.984;5.928;2022-11-02T02:02:34;14.20;95.50
39023;DHT22;25908;51.984;5.928;2022-11-02T02:05:06;14.10;95.20
39023;DHT22;25908;51.984;5.928;2022-11-02T02:07:33;14.00;94.90
39023;DHT22;25908;51.984;5.928;2022-11-02T02:09:59;13.90;95.30
39023;DHT22;25908;51.984;5.928;2022-11-02T02:12:27;13.80;95.00
39023;DHT22;25908;51.984;5.928;2022-11-02T02:14:53;13.70;95.40
39023;DHT22;25908;51.984;5.928;2022-11-02T02:17:25;13.70;95.40
39023;DHT22;25908;51.984;5.928;2022-11-02T02:19:57;13.60;95.80
39023;DHT22;25908;51.984;5.928;2022-11-02T02:22:51;13.60;96.10
39023;DHT22;25908;51.984;5.928;2022-11-02T02:26:02;13.50;96.00
39023;DHT22;25908;51.984;5.928;2022-11-02T02:28:52;13.50;96.50
39023;DHT22;25908;51.984;5.928;2022-11-02T02:31:27;13.40;96.40
39023;DHT22;25908;51.984;5.928;2022-11-02T02:34:08;13.40;96.60
39023;DHT22;25908;51.984;5.928;2022-11-02T02:37:00;13.40;96.80
39023;DHT22;25908;51.984;5.928;2022-11-02T02:39:39;13.40;97.00
39023;DHT22;25908;51.984;5.928;2022-11-02T02:42:33;13.40;96.90
39023;DHT22;25908;51.984;5.928;2022-11-02T02:47:46;13.30;97.00
39023;DHT22;25908;51.984;5.928;2022-11-02T02:50:20;13.20;97.60
39023;DHT22;25908;51.984;5.928;2022-11-02T02:52:49;13.20;97.60
39023;DHT22;25908;51.984;5.928;2022-11-02T02:55:20;13.20;97.40
39023;DHT22;25908;51.984;5.928;2022-11-02T02:57:47;13.20;97.50
39023;DHT22;25908;51.984;5.928;2022-11-02T03:00:15;13.20;97.70
39023;DHT22;25908;51.984;5.928;2022-11-02T03:02:43;13.30;97.70
39023;DHT22;25908;51.984;5.928;2022-11-02T03:05:29;13.20;97.50
39023;DHT22;25908;51.984;5.928;2022-11-02T03:07:59;13.20;97.30
39023;DHT22;25908;51.984;5.928;2022-11-02T03:10:33;13.20;97.30
39023;DHT22;25908;51.984;5.928;2022-11-02T03:15:50;13.20;97.70
39023;DHT22;25908;51.984;5.928;2022-11-02T03:18:30;13.10;97.70
39023;DHT22;25908;51.984;5.928;2022-11-02T03:26:52;13.20;97.90
39023;DHT22;25908;51.984;5.928;2022-11-02T03:29:25;13.20;97.80
39023;DHT22;25908;51.984;5.928;2022-11-02T03:31:59;13.20;98.00
39023;DHT22;25908;51.984;5.928;2022-11-02T03:34:42;13.20;97.70
39023;DHT22;25908;51.984;5.928;2022-11-02T03:42:33;13.20;98.10
39023;DHT22;25908;51.984;5.928;2022-11-02T03:45:06;13.20;98.20
39023;DHT22;25908;51.984;5.928;2022-11-02T03:47:35;13.20;98.20
39023;DHT22;25908;51.984;5.928;2022-11-02T03:50:04;13.20;98.50
39023;DHT22;25908;51.984;5.928;2022-11-02T03:52:32;13.30;98.50
39023;DHT22;25908;51.984;5.928;2022-11-02T03:55:11;13.20;98.20
39023;DHT22;25908;51.984;5.928;2022-11-02T03:57:48;13.30;98.30
39023;DHT22;25908;51.984;5.928;2022-11-02T04:00:22;13.20;97.90
39023;DHT22;25908;51.984;5.928;2022-11-02T04:02:53;13.20;97.90
39023;DHT22;25908;51.984;5.928;2022-11-02T04:05:25;13.20;98.00
39023;DHT22;25908;51.984;5.928;2022-11-02T04:07:52;13.20;97.80
39023;DHT22;25908;51.984;5.928;2022-11-02T04:10:38;13.20;97.80
39023;DHT22;25908;51.984;5.928;2022-11-02T04:13:23;13.20;97.70
39023;DHT22;25908;51.984;5.928;2022-11-02T04:16:08;13.20;97.80
39023;DHT22;25908;51.984;5.928;2022-11-02T04:18:33;13.20;97.80
39023;DHT22;25908;51.984;5.928;2022-11-02T04:21:17;13.20;97.70
39023;DHT22;25908;51.984;5.928;2022-11-02T04:23:43;13.20;97.60
39023;DHT22;25908;51.984;5.928;2022-11-02T04:26:27;13.20;97.60
39023;DHT22;25908;51.984;5.928;2022-11-02T04:28:52;13.20;97.40
39023;DHT22;25908;51.984;5.928;2022-11-02T04:31:18;13.20;97.50
39023;DHT22;25908;51.984;5.928;2022-11-02T04:33:43;13.20;97.30
39023;DHT22;25908;51.984;5.928;2022-11-02T04:36:09;13.20;97.20
39023;DHT22;25908;51.984;5.928;2022-11-02T04:38:34;13.20;97.00
39023;DHT22;25908;51.984;5.928;2022-11-02T04:41:14;13.20;97.00
39023;DHT22;25908;51.984;5.928;2022-11-02T04:43:59;13.20;97.00
39023;DHT22;25908;51.984;5.928;2022-11-02T04:46:27;13.20;97.20
39023;DHT22;25908;51.984;5.928;2022-11-02T04:48:53;13.20;97.10
39023;DHT22;25908;51.984;5.928;2022-11-02T04:51:20;13.30;97.10
39023;DHT22;25908;51.984;5.928;2022-11-02T04:53:47;13.30;97.10
39023;DHT22;25908;51.984;5.928;2022-11-02T04:56:13;13.30;96.70
39023;DHT22;25908;51.984;5.928;2022-11-02T04:58:39;13.30;96.70
39023;DHT22;25908;51.984;5.928;2022-11-02T05:01:06;13.30;96.50
39023;DHT22;25908;51.984;5.928;2022-11-02T05:03:32;13.30;96.50
39023;DHT22;25908;51.984;5.928;2022-11-02T05:05:58;13.30;96.60
39023;DHT22;25908;51.984;5.928;2022-11-02T05:08:23;13.30;96.50
39023;DHT22;25908;51.984;5.928;2022-11-02T05:10:53;13.30;96.60
39023;DHT22;25908;51.984;5.928;2022-11-02T05:13:19;13.30;96.70
39023;DHT22;25908;51.984;5.928;2022-11-02T05:15:45;13.30;96.60
39023;DHT22;25908;51.984;5.928;2022-11-02T05:18:10;13.30;96.40
39023;DHT22;25908;51.984;5.928;2022-11-02T05:20:36;13.30;96.70
39023;DHT22;25908;51.984;5.928;2022-11-02T05:23:01;13.30;96.90
39023;DHT22;25908;51.984;5.928;2022-11-02T05:25:27;13.30;96.90
39023;DHT22;25908;51.984;5.928;2022-11-02T05:27:55;13.30;96.70
39023;DHT22;25908;51.984;5.928;2022-11-02T05:30:21;13.30;96.90
39023;DHT22;25908;51.984;5.928;2022-11-02T05:32:46;13.40;96.80
39023;DHT22;25908;51.984;5.928;2022-11-02T05:35:12;13.40;96.90
39023;DHT22;25908;51.984;5.928;2022-11-02T05:37:37;13.40;96.50
39023;DHT22;25908;51.984;5.928;2022-11-02T05:40:04;13.30;96.80
39023;DHT22;25908;51.984;5.928;2022-11-02T05:42:29;13.30;96.90
39023;DHT22;25908;51.984;5.928;2022-11-02T05:44:55;13.30;96.80
39023;DHT22;25908;51.984;5.928;2022-11-02T05:47:20;13.40;96.80
39023;DHT22;25908;51.984;5.928;2022-11-02T05:49:46;13.30;96.70
39023;DHT22;25908;51.984;5.928;2022-11-02T05:52:11;13.30;96.80
39023;DHT22;25908;51.984;5.928;2022-11-02T05:54:37;13.30;96.90
39023;DHT22;25908;51.984;5.928;2022-11-02T05:57:02;13.30;97.00
39023;DHT22;25908;51.984;5.928;2022-11-02T05:59:28;13.30;97.20
39023;DHT22;25908;51.984;5.928;2022-11-02T06:01:54;13.40;97.30
39023;DHT22;25908;51.984;5.928;2022-11-02T06:04:19;13.40;97.00
39023;DHT22;25908;51.984;5.928;2022-11-02T06:06:45;13.30;96.90
39023;DHT22;25908;51.984;5.928;2022-11-02T06:09:10;13.40;97.00
39023;DHT22;25908;51.984;5.928;2022-11-02T06:11:36;13.40;96.90
39023;DHT22;25908;51.984;5.928;2022-11-02T06:14:01;13.40;96.90
39023;DHT22;25908;51.984;5.928;2022-11-02T06:16:28;13.40;96.90
39023;DHT22;25908;51.984;5.928;2022-11-02T06:18:53;13.40;96.70
39023;DHT22;25908;51.984;5.928;2022-11-02T06:21:19;13.30;96.80
39023;DHT22;25908;51.984;5.928;2022-11-02T06:23:48;13.30;97.10
39023;DHT22;25908;51.984;5.928;2022-11-02T06:26:14;13.30;97.20
39023;DHT22;25908;51.984;5.928;2022-11-02T06:28:40;13.40;97.20
39023;DHT22;25908;51.984;5.928;2022-11-02T06:31:06;13.40;96.80
39023;DHT22;25908;51.984;5.928;2022-11-02T06:33:31;13.40;96.80
39023;DHT22;25908;51.984;5.928;2022-11-02T06:35:57;13.40;96.80
39023;DHT22;25908;51.984;5.928;2022-11-02T06:38:23;13.40;96.90
39023;DHT22;25908;51.984;5.928;2022-11-02T06:40:53;13.30;96.70
39023;DHT22;25908;51.984;5.928;2022-11-02T06:43:19;13.30;96.90
39023;DHT22;25908;51.984;5.928;2022-11-02T06:45:45;13.30;97.10
39023;DHT22;25908;51.984;5.928;2022-11-02T06:48:11;13.30;97.00
39023;DHT22;25908;51.984;5.928;2022-11-02T06:50:36;13.30;97.00
39023;DHT22;25908;51.984;5.928;2022-11-02T06:53:02;13.30;96.80
39023;DHT22;25908;51.984;5.928;2022-11-02T06:55:27;13.30;97.00
39023;DHT22;25908;51.984;5.928;2022-11-02T06:57:53;13.20;97.20
39023;DHT22;25908;51.984;5.928;2022-11-02T07:00:19;13.20;97.20
39023;DHT22;25908;51.984;5.928;2022-11-02T07:02:45;13.10;97.40
39023;DHT22;25908;51.984;5.928;2022-11-02T07:05:12;13.10;97.40
39023;DHT22;25908;51.984;5.928;2022-11-02T07:07:37;13.10;97.40
39023;DHT22;25908;51.984;5.928;2022-11-02T07:10:04;13.20;97.50
39023;DHT22;25908;51.984;5.928;2022-11-02T07:12:31;13.20;97.40
39023;DHT22;25908;51.984;5.928;2022-11-02T07:14:57;13.10;97.20
39023;DHT22;25908;51.984;5.928;2022-11-02T07:17:22;13.10;97.40
39023;DHT22;25908;51.984;5.928;2022-11-02T07:19:48;13.10;97.40
39023;DHT22;25908;51.984;5.928;2022-11-02T07:22:13;13.10;97.80
39023;DHT22;25908;51.984;5.928;2022-11-02T07:24:39;13.10;97.50
39023;DHT22;25908;51.984;5.928;2022-11-02T07:27:04;13.10;97.60
39023;DHT22;25908;51.984;5.928;2022-11-02T07:29:30;13.10;97.70
39023;DHT22;25908;51.984;5.928;2022-11-02T07:31:55;13.20;97.20
39023;DHT22;25908;51.984;5.928;2022-11-02T07:34:21;13.20;97.50
39023;DHT22;25908;51.984;5.928;2022-11-02T07:36:46;13.20;97.20
39023;DHT22;25908;51.984;5.928;2022-11-02T07:39:12;13.20;97.10
39023;DHT22;25908;51.984;5.928;2022-11-02T07:41:37;13.30;97.30
39023;DHT22;25908;51.984;5.928;2022-11-02T07:44:03;13.40;97.00
39023;DHT22;25908;51.984;5.928;2022-11-02T07:46:29;13.40;96.70
39023;DHT22;25908;51.984;5.928;2022-11-02T07:48:54;13.40;96.70
39023;DHT22;25908;51.984;5.928;2022-11-02T07:51:21;13.40;97.00
39023;DHT22;25908;51.984;5.928;2022-11-02T07:53:47;13.60;96.80
39023;DHT22;25908;51.984;5.928;2022-11-02T07:56:12;13.80;96.30
39023;DHT22;25908;51.984;5.928;2022-11-02T07:58:38;14.00;95.60
39023;DHT22;25908;51.984;5.928;2022-11-02T08:01:04;14.20;95.30
39023;DHT22;25908;51.984;5.928;2022-11-02T08:03:29;14.50;95.20
39023;DHT22;25908;51.984;5.928;2022-11-02T08:05:55;14.80;94.20
39023;DHT22;25908;51.984;5.928;2022-11-02T08:08:22;15.00;93.60
39023;DHT22;25908;51.984;5.928;2022-11-02T08:10:50;15.10;93.50
39023;DHT22;25908;51.984;5.928;2022-11-02T08:13:18;15.30;93.80
39023;DHT22;25908;51.984;5.928;2022-11-02T08:15:48;15.50;93.80
39023;DHT22;25908;51.984;5.928;2022-11-02T08:18:17;15.60;93.70
39023;DHT22;25908;51.984;5.928;2022-11-02T08:20:43;15.70;93.50
39023;DHT22;25908;51.984;5.928;2022-11-02T08:23:14;15.60;93.40
39023;DHT22;25908;51.984;5.928;2022-11-02T08:25:40;15.40;93.60
39023;DHT22;25908;51.984;5.928;2022-11-02T08:28:08;15.30;93.40
39023;DHT22;25908;51.984;5.928;2022-11-02T08:30:36;15.10;93.70
39023;DHT22;25908;51.984;5.928;2022-11-02T08:33:06;15.00;93.80
39023;DHT22;25908;51.984;5.928;2022-11-02T08:35:33;14.80;93.60
39023;DHT22;25908;51.984;5.928;2022-11-02T08:37:59;14.60;94.60
39023;DHT22;25908;51.984;5.928;2022-11-02T08:40:25;14.50;94.70
39023;DHT22;25908;51.984;5.928;2022-11-02T08:42:55;14.40;94.90
39023;DHT22;25908;51.984;5.928;2022-11-02T08:45:22;14.50;94.80
39023;DHT22;25908;51.984;5.928;2022-11-02T08:47:47;14.60;94.70
39023;DHT22;25908;51.984;5.928;2022-11-02T08:50:13;14.90;94.60
39023;DHT22;25908;51.984;5.928;2022-11-02T08:52:39;15.20;93.60
39023;DHT22;25908;51.984;5.928;2022-11-02T08:55:05;15.50;92.80
39023;DHT22;25908;51.984;5.928;2022-11-02T08:57:30;15.60;92.80
39023;DHT22;25908;51.984;5.928;2022-11-02T08:59:56;15.90;92.10
39023;DHT22;25908;51.984;5.928;2022-11-02T09:02:22;16.10;91.50
39023;DHT22;25908;51.984;5.928;2022-11-02T09:04:47;16.30;90.90
39023;DHT22;25908;51.984;5.928;2022-11-02T09:07:13;16.50;89.60
39023;DHT22;25908;51.984;5.928;2022-11-02T09:09:38;16.40;90.50
39023;DHT22;25908;51.984;5.928;2022-11-02T09:12:04;16.50;90.10
39023;DHT22;25908;51.984;5.928;2022-11-02T09:14:30;16.60;89.10
39023;DHT22;25908;51.984;5.928;2022-11-02T09:16:56;16.60;89.60
39023;DHT22;25908;51.984;5.928;2022-11-02T09:19:21;16.70;88.40
39023;DHT22;25908;51.984;5.928;2022-11-02T09:21:47;16.50;89.10
39023;DHT22;25908;51.984;5.928;2022-11-02T09:24:14;16.40;88.30
39023;DHT22;25908;51.984;5.928;2022-11-02T09:26:39;16.30;89.90
39023;DHT22;25908;51.984;5.928;2022-11-02T09:29:05;16.30;90.00
39023;DHT22;25908;51.984;5.928;2022-11-02T09:31:30;16.50;89.70
39023;DHT22;25908;51.984;5.928;2022-11-02T09:33:56;16.70;90.00
39023;DHT22;25908;51.984;5.928;2022-11-02T09:36:22;16.90;89.60
39023;DHT22;25908;51.984;5.928;2022-11-02T09:38:48;17.20;88.30
39023;DHT22;25908;51.984;5.928;2022-11-02T09:41:25;17.30;87.30
39023;DHT22;25908;51.984;5.928;2022-11-02T09:44:16;17.30;87.10
39023;DHT22;25908;51.984;5.928;2022-11-02T09:46:45;17.20;86.20
39023;DHT22;25908;51.984;5.928;2022-11-02T09:49:12;17.00;86.60
39023;DHT22;25908;51.984;5.928;2022-11-02T09:51:41;16.90;87.10
39023;DHT22;25908;51.984;5.928;2022-11-02T09:56:56;17.10;86.20
39023;DHT22;25908;51.984;5.928;2022-11-02T09:59:24;17.00;86.00
39023;DHT22;25908;51.984;5.928;2022-11-02T10:10:16;16.70;86.00
39023;DHT22;25908;51.984;5.928;2022-11-02T10:13:02;16.40;86.80
39023;DHT22;25908;51.984;5.928;2022-11-02T10:15:38;16.20;87.90
39023;DHT22;25908;51.984;5.928;2022-11-02T10:18:12;16.20;87.90
39023;DHT22;25908;51.984;5.928;2022-11-02T10:20:43;16.20;88.70
39023;DHT22;25908;51.984;5.928;2022-11-02T10:23:16;16.10;88.90
39023;DHT22;25908;51.984;5.928;2022-11-02T10:25:44;16.20;88.80
39023;DHT22;25908;51.984;5.928;2022-11-02T10:28:20;16.20;89.10
39023;DHT22;25908;51.984;5.928;2022-11-02T10:30:48;16.50;87.30
39023;DHT22;25908;51.984;5.928;2022-11-02T10:33:16;16.40;87.30
39023;DHT22;25908;51.984;5.928;2022-11-02T10:51:49;16.50;87.70
39023;DHT22;25908;51.984;5.928;2022-11-02T10:54:15;16.50;86.50
39023;DHT22;25908;51.984;5.928;2022-11-02T10:56:42;16.60;87.00
39023;DHT22;25908;51.984;5.928;2022-11-02T10:59:18;16.50;86.30
39023;DHT22;25908;51.984;5.928;2022-11-02T11:04:27;16.50;86.30
39023;DHT22;25908;51.984;5.928;2022-11-02T11:06:54;16.50;86.90
39023;DHT22;25908;51.984;5.928;2022-11-02T11:09:24;16.50;85.20
39023;DHT22;25908;51.984;5.928;2022-11-02T11:14:20;16.30;86.30
39023;DHT22;25908;51.984;5.928;2022-11-02T11:16:56;16.20;87.50
39023;DHT22;25908;51.984;5.928;2022-11-02T11:19:35;16.10;87.20
39023;DHT22;25908;51.984;5.928;2022-11-02T11:22:26;16.00;87.90
39023;DHT22;25908;51.984;5.928;2022-11-02T11:24:52;15.90;88.50
39023;DHT22;25908;51.984;5.928;2022-11-02T11:27:20;15.90;88.40
39023;DHT22;25908;51.984;5.928;2022-11-02T11:29:51;15.90;89.10
39023;DHT22;25908;51.984;5.928;2022-11-02T11:32:18;15.90;89.60
39023;DHT22;25908;51.984;5.928;2022-11-02T11:34:56;15.90;89.90
39023;DHT22;25908;51.984;5.928;2022-11-02T11:37:23;16.00;89.80
39023;DHT22;25908;51.984;5.928;2022-11-02T11:39:53;16.10;88.10
39023;DHT22;25908;51.984;5.928;2022-11-02T11:42:21;16.00;88.70
39023;DHT22;25908;51.984;5.928;2022-11-02T11:45:03;16.10;88.90
39023;DHT22;25908;51.984;5.928;2022-11-02T11:47:34;16.00;88.50
39023;DHT22;25908;51.984;5.928;2022-11-02T11:50:04;16.00;88.90
39023;DHT22;25908;51.984;5.928;2022-11-02T11:52:32;16.00;88.90
39023;DHT22;25908;51.984;5.928;2022-11-02T11:55:21;16.00;88.40
39023;DHT22;25908;51.984;5.928;2022-11-02T11:58:03;16.00;88.60
39023;DHT22;25908;51.984;5.928;2022-11-02T12:00:29;16.00;87.40
39023;DHT22;25908;51.984;5.928;2022-11-02T12:03:04;16.00;87.90
39023;DHT22;25908;51.984;5.928;2022-11-02T12:31:21;15.60;85.80
39023;DHT22;25908;51.984;5.928;2022-11-02T12:40:01;15.60;85.30
39023;DHT22;25908;51.984;5.928;2022-11-02T12:42:33;15.60;85.10
39023;DHT22;25908;51.984;5.928;2022-11-02T12:45:25;15.60;85.20
39023;DHT22;25908;51.984;5.928;2022-11-02T12:47:59;15.60;84.30
39023;DHT22;25908;51.984;5.928;2022-11-02T12:50:52;15.50;84.70
39023;DHT22;25908;51.984;5.928;2022-11-02T12:53:43;15.60;83.50
39023;DHT22;25908;51.984;5.928;2022-11-02T12:56:15;15.50;83.40
39023;DHT22;25908;51.984;5.928;2022-11-02T12:58:42;15.50;82.70
39023;DHT22;25908;51.984;5.928;2022-11-02T13:01:30;15.50;83.00
39023;DHT22;25908;51.984;5.928;2022-11-02T13:04:04;15.50;83.80
39023;DHT22;25908;51.984;5.928;2022-11-02T13:06:46;15.50;83.80
39023;DHT22;25908;51.984;5.928;2022-11-02T13:09:31;15.60;84.30
39023;DHT22;25908;51.984;5.928;2022-11-02T13:12:02;15.60;83.10
39023;DHT22;25908;51.984;5.928;2022-11-02T13:14:46;15.60;82.50
39023;DHT22;25908;51.984;5.928;2022-11-02T13:17:48;15.60;82.80
39023;DHT22;25908;51.984;5.928;2022-11-02T13:20:26;15.60;83.30
39023;DHT22;25908;51.984;5.928;2022-11-02T13:23:14;15.50;81.90
39023;DHT22;25908;51.984;5.928;2022-11-02T13:25:49;15.50;82.70
39023;DHT22;25908;51.984;5.928;2022-11-02T13:28:25;15.50;82.70
39023;DHT22;25908;51.984;5.928;2022-11-02T13:30:55;15.50;82.30
39023;DHT22;25908;51.984;5.928;2022-11-02T13:33:51;15.50;81.70
39023;DHT22;25908;51.984;5.928;2022-11-02T13:36:18;15.40;81.70
39023;DHT22;25908;51.984;5.928;2022-11-02T13:38:56;15.50;82.30
39023;DHT22;25908;51.984;5.928;2022-11-02T13:47:27;15.50;82.40
39023;DHT22;25908;51.984;5.928;2022-11-02T13:49:57;15.50;81.70
39023;DHT22;25908;51.984;5.928;2022-11-02T13:53:14;15.50;82.10
39023;DHT22;25908;51.984;5.928;2022-11-02T13:56:10;15.50;82.80
39023;DHT22;25908;51.984;5.928;2022-11-02T13:58:41;15.50;82.00
39023;DHT22;25908;51.984;5.928;2022-11-02T14:01:10;15.50;82.60
39023;DHT22;25908;51.984;5.928;2022-11-02T14:03:52;15.40;82.70
39023;DHT22;25908;51.984;5.928;2022-11-02T14:06:19;15.40;82.80
39023;DHT22;25908;51.984;5.928;2022-11-02T14:08:58;15.40;83.20
39023;DHT22;25908;51.984;5.928;2022-11-02T14:19:20;15.40;84.10
39023;DHT22;25908;51.984;5.928;2022-11-02T14:26:59;15.40;85.00
39023;DHT22;25908;51.984;5.928;2022-11-02T14:40:35;15.40;86.00
39023;DHT22;25908;51.984;5.928;2022-11-02T14:46:18;15.50;86.30
39023;DHT22;25908;51.984;5.928;2022-11-02T14:48:54;15.50;86.40
39023;DHT22;25908;51.984;5.928;2022-11-02T14:51:35;15.50;86.50
39023;DHT22;25908;51.984;5.928;2022-11-02T14:54:18;15.50;86.40
39023;DHT22;25908;51.984;5.928;2022-11-02T14:57:13;15.50;86.70
39023;DHT22;25908;51.984;5.928;2022-11-02T14:59:44;15.50;86.40
39023;DHT22;25908;51.984;5.928;2022-11-02T15:02:20;15.40;86.30
39023;DHT22;25908;51.984;5.928;2022-11-02T15:04:49;15.40;87.00
39023;DHT22;25908;51.984;5.928;2022-11-02T15:07:40;15.40;86.50
39023;DHT22;25908;51.984;5.928;2022-11-02T15:15:43;15.40;86.60
39023;DHT22;25908;51.984;5.928;2022-11-02T15:23:46;15.30;87.50
39023;DHT22;25908;51.984;5.928;2022-11-02T15:29:17;15.20;87.40
39023;DHT22;25908;51.984;5.928;2022-11-02T15:31:56;15.20;88.20
39023;DHT22;25908;51.984;5.928;2022-11-02T15:34:42;15.20;88.20
39023;DHT22;25908;51.984;5.928;2022-11-02T15:37:15;15.10;88.20
39023;DHT22;25908;51.984;5.928;2022-11-02T15:39:50;15.10;88.70
39023;DHT22;25908;51.984;5.928;2022-11-02T15:45:12;15.10;89.60
39023;DHT22;25908;51.984;5.928;2022-11-02T15:51:15;15.10;90.10
39023;DHT22;25908;51.984;5.928;2022-11-02T15:57:05;15.00;90.50
39023;DHT22;25908;51.984;5.928;2022-11-02T16:00:09;15.00;90.50
39023;DHT22;25908;51.984;5.928;2022-11-02T16:02:42;15.00;90.70
39023;DHT22;25908;51.984;5.928;2022-11-02T16:05:45;15.00;90.70
39023;DHT22;25908;51.984;5.928;2022-11-02T16:08:30;15.00;90.70
39023;DHT22;25908;51.984;5.928;2022-11-02T16:11:24;15.00;90.90
39023;DHT22;25908;51.984;5.928;2022-11-02T16:13:49;15.00;90.90
39023;DHT22;25908;51.984;5.928;2022-11-02T16:16:18;14.90;91.00
39023;DHT22;25908;51.984;5.928;2022-11-02T16:18:48;14.90;91.20
39023;DHT22;25908;51.984;5.928;2022-11-02T16:21:20;14.80;91.30
39023;DHT22;25908;51.984;5.928;2022-11-02T16:23:52;14.80;91.40
39023;DHT22;25908;51.984;5.928;2022-11-02T16:26:28;14.80;91.40
39023;DHT22;25908;51.984;5.928;2022-11-02T16:28:56;14.80;91.50
39023;DHT22;25908;51.984;5.928;2022-11-02T16:31:24;14.70;91.40
39023;DHT22;25908;51.984;5.928;2022-11-02T16:33:57;14.70;91.60
39023;DHT22;25908;51.984;5.928;2022-11-02T16:41:37;14.60;92.10
39023;DHT22;25908;51.984;5.928;2022-11-02T16:44:09;14.60;92.10
39023;DHT22;25908;51.984;5.928;2022-11-02T16:49:32;14.50;92.30
39023;DHT22;25908;51.984;5.928;2022-11-02T16:52:19;14.50;92.40
39023;DHT22;25908;51.984;5.928;2022-11-02T16:54:45;14.40;92.40
39023;DHT22;25908;51.984;5.928;2022-11-02T17:02:15;14.30;92.60
39023;DHT22;25908;51.984;5.928;2022-11-02T17:04:42;14.30;92.50
39023;DHT22;25908;51.984;5.928;2022-11-02T17:09:52;14.20;92.30
39023;DHT22;25908;51.984;5.928;2022-11-02T17:12:20;14.20;92.10
39023;DHT22;25908;51.984;5.928;2022-11-02T17:14:48;14.30;92.10
39023;DHT22;25908;51.984;5.928;2022-11-02T17:20:04;14.20;91.90
39023;DHT22;25908;51.984;5.928;2022-11-02T17:22:35;14.20;91.70
39023;DHT22;25908;51.984;5.928;2022-11-02T17:25:20;14.10;91.70
39023;DHT22;25908;51.984;5.928;2022-11-02T17:27:47;14.10;91.90
39023;DHT22;25908;51.984;5.928;2022-11-02T17:32:57;14.10;92.10
39023;DHT22;25908;51.984;5.928;2022-11-02T17:35:23;14.10;92.20
39023;DHT22;25908;51.984;5.928;2022-11-02T17:37:49;14.10;92.30
39023;DHT22;25908;51.984;5.928;2022-11-02T17:40:14;14.10;92.30
39023;DHT22;25908;51.984;5.928;2022-11-02T17:42:40;14.00;92.40
39023;DHT22;25908;51.984;5.928;2022-11-02T17:45:33;14.00;92.30
39023;DHT22;25908;51.984;5.928;2022-11-02T17:48:02;14.00;92.50
39023;DHT22;25908;51.984;5.928;2022-11-02T17:50:30;14.00;92.50
39023;DHT22;25908;51.984;5.928;2022-11-02T17:52:57;14.00;92.70
39023;DHT22;25908;51.984;5.928;2022-11-02T17:55:32;13.90;92.80
39023;DHT22;25908;51.984;5.928;2022-11-02T17:57:58;13.90;92.80
39023;DHT22;25908;51.984;5.928;2022-11-02T18:00:25;13.90;92.90
39023;DHT22;25908;51.984;5.928;2022-11-02T18:02:56;13.90;93.10
39023;DHT22;25908;51.984;5.928;2022-11-02T18:05:29;13.80;93.20
39023;DHT22;25908;51.984;5.928;2022-11-02T18:07:57;13.80;93.30
39023;DHT22;25908;51.984;5.928;2022-11-02T18:10:25;13.80;93.50
39023;DHT22;25908;51.984;5.928;2022-11-02T18:12:50;13.80;93.60
39023;DHT22;25908;51.984;5.928;2022-11-02T18:15:25;13.70;93.50
39023;DHT22;25908;51.984;5.928;2022-11-02T18:17:51;13.70;93.40
39023;DHT22;25908;51.984;5.928;2022-11-02T18:20:17;13.70;93.50
39023;DHT22;25908;51.984;5.928;2022-11-02T18:22:43;13.60;93.70
39023;DHT22;25908;51.984;5.928;2022-11-02T18:25:14;13.60;93.60
39023;DHT22;25908;51.984;5.928;2022-11-02T18:27:40;13.60;93.30
39023;DHT22;25908;51.984;5.928;2022-11-02T18:30:08;13.60;93.20
39023;DHT22;25908;51.984;5.928;2022-11-02T18:32:36;13.60;93.10